Time;durP1;ratioP1;P1;durP2;ratioP2;P2;SDS_P1;SDS_P2;PMS_P1;PMS_P2;Temp;Humidity;BMP_temperature;BMP_pressure;BME280_temperature;BME280_humidity;BME280_pressure;Samples;Min_cycle;Max_cycle;Signal;HPM_P1;HPM_P2
2022/12/22 03:27:40;;;;;;;73.40;45.50;;;;;;;1.53;100.00;98692.80;106082;1287;58891;-80
2022/12/22 03:30:07;;;;;;;68.60;45.60;;;;;;;1.51;100.00;98690.40;105880;1295;59037;-80
2022/12/22 03:32:33;;;;;;;76.70;50.10;;;;;;;1.50;100.00;98691.14;106097;1288;58969;-79
2022/12/22 03:34:59;;;;;;;72.00;45.40;;;;;;;1.51;100.00;98689.52;106074;1289;58914;-79
2022/12/22 03:37:25;;;;;;;70.70;47.10;;;;;;;1.52;100.00;98689.69;106081;1289;58882;-79
2022/12/22 03:39:51;;;;;;;66.70;46.20;;;;;;;1.52;100.00;98685.67;106095;1287;58970;-79
2022/12/22 03:47:47;;;;;;;69.70;46.60;;;;;;;1.50;100.00;98674.02;105932;1292;60893;-79
2022/12/22 03:50:13;;;;;;;75.30;48.20;;;;;;;1.49;100.00;98673.16;106068;1288;58873;-79
2022/12/22 03:52:39;;;;;;;67.10;46.00;;;;;;;1.48;100.00;98667.57;106075;1287;58972;-80
2022/12/22 03:55:05;;;;;;;77.90;47.30;;;;;;;1.49;100.00;98663.69;106089;1281;58910;-79
2022/12/22 03:57:32;;;;;;;76.00;48.20;;;;;;;1.49;100.00;98668.42;106094;1295;59008;-79
2022/12/22 03:59:57;;;;;;;75.20;47.90;;;;;;;1.49;100.00;98677.38;106072;1287;59164;-79
2022/12/22 04:02:24;;;;;;;70.60;47.00;;;;;;;1.49;100.00;98685.42;105889;1295;59330;-80
2022/12/22 04:04:50;;;;;;;68.40;46.00;;;;;;;1.50;100.00;98691.33;105835;1290;59097;-80
2022/12/22 04:07:15;;;;;;;72.90;47.80;;;;;;;1.50;100.00;98688.86;106107;1289;58899;-79
2022/12/22 04:12:53;;;;;;;67.40;44.60;;;;;;;1.52;100.00;98678.67;105912;1292;59050;-79
2022/12/22 04:15:13;;;;;;;65.30;44.00;;;;;;;1.51;100.00;98670.27;106059;1287;58905;-81
2022/12/22 04:17:39;;;;;;;69.70;45.50;;;;;;;1.50;100.00;98675.21;106085;1290;58911;-80
2022/12/22 04:20:06;;;;;;;66.30;44.80;;;;;;;1.50;100.00;98676.27;106090;1289;58935;-80
2022/12/22 04:22:32;;;;;;;64.60;44.10;;;;;;;1.50;100.00;98672.25;105774;1294;59837;-80
2022/12/22 04:24:58;;;;;;;68.80;44.70;;;;;;;1.50;100.00;98667.70;106065;1288;58994;-79
2022/12/22 04:27:24;;;;;;;70.50;44.90;;;;;;;1.49;100.00;98664.73;105850;1284;59386;-80
2022/12/22 04:29:51;;;;;;;65.90;46.50;;;;;;;1.48;100.00;98658.30;106011;1289;59083;-80
2022/12/22 04:32:17;;;;;;;72.10;47.00;;;;;;;1.45;100.00;98651.05;106081;1288;58935;-80
2022/12/22 04:34:43;;;;;;;72.10;49.00;;;;;;;1.43;100.00;98643.61;106122;1289;59267;-79
2022/12/22 04:37:09;;;;;;;70.00;47.20;;;;;;;1.42;100.00;98643.84;106098;1288;58953;-80
2022/12/22 04:39:35;;;;;;;66.80;47.00;;;;;;;1.41;100.00;98637.71;106098;1287;58884;-80
2022/12/22 04:42:01;;;;;;;71.50;48.90;;;;;;;1.42;100.00;98639.11;106091;1289;58905;-80
2022/12/22 04:44:27;;;;;;;74.60;50.80;;;;;;;1.44;100.00;98632.73;106089;1294;58904;-80
2022/12/22 04:46:53;;;;;;;69.50;50.70;;;;;;;1.46;100.00;98623.88;105767;1289;58942;-80
2022/12/22 04:49:19;;;;;;;67.30;46.90;;;;;;;1.48;100.00;98623.98;106068;1288;58899;-80
2022/12/22 04:51:45;;;;;;;66.20;44.70;;;;;;;1.49;100.00;98618.17;106072;1282;58894;-80
2022/12/22 04:54:11;;;;;;;64.50;44.30;;;;;;;1.50;100.00;98620.42;106082;1283;58898;-80
2022/12/22 04:56:37;;;;;;;69.30;46.90;;;;;;;1.50;100.00;98621.64;106090;1289;58974;-80
2022/12/22 04:59:03;;;;;;;70.20;46.60;;;;;;;1.50;100.00;98621.46;106074;1288;59017;-80
2022/12/22 05:01:29;;;;;;;70.30;48.30;;;;;;;1.52;100.00;98622.96;106081;1280;58947;-80
2022/12/22 05:03:55;;;;;;;72.80;45.70;;;;;;;1.54;100.00;98626.77;106065;1289;58900;-80
2022/12/22 05:06:21;;;;;;;73.50;49.80;;;;;;;1.55;100.00;98628.48;105867;1292;59016;-80
2022/12/22 05:08:47;;;;;;;76.70;53.80;;;;;;;1.56;100.00;98629.66;106100;1287;58905;-80
2022/12/22 05:11:14;;;;;;;78.50;54.70;;;;;;;1.57;100.00;98631.38;106065;1288;59262;-81
2022/12/22 05:13:40;;;;;;;77.00;53.50;;;;;;;1.59;100.00;98630.63;105935;1291;58808;-80
2022/12/22 05:16:11;;;;;;;75.20;52.10;;;;;;;1.60;100.00;98626.22;106072;1288;59048;-79
2022/12/22 05:18:39;;;;;;;74.50;49.90;;;;;;;1.58;100.00;98624.52;106000;1289;69247;-79
2022/12/22 05:21:07;;;;;;;75.60;53.50;;;;;;;1.58;100.00;98632.23;106049;1289;65013;-80
2022/12/22 05:23:33;;;;;;;77.20;54.30;;;;;;;1.57;100.00;98637.70;105910;1291;58996;-80
2022/12/22 05:25:59;;;;;;;76.90;52.70;;;;;;;1.56;100.00;98635.13;106076;1285;58838;-80
2022/12/22 05:28:25;;;;;;;75.20;52.80;;;;;;;1.55;100.00;98632.16;106084;1287;59110;-80
2022/12/22 05:30:52;;;;;;;73.20;52.00;;;;;;;1.55;100.00;98627.60;106078;1279;59007;-80
2022/12/22 05:33:19;;;;;;;75.60;53.50;;;;;;;1.56;100.00;98628.99;106074;1288;58908;-81
2022/12/22 05:35:45;;;;;;;76.50;54.50;;;;;;;1.56;100.00;98634.41;106049;1288;58884;-80
2022/12/22 05:38:11;;;;;;;73.50;52.00;;;;;;;1.56;100.00;98636.17;106086;1289;58821;-80
2022/12/22 05:40:37;;;;;;;74.30;52.10;;;;;;;1.56;100.00;98636.67;106089;1287;59006;-81
2022/12/22 05:43:04;;;;;;;70.20;48.20;;;;;;;1.56;100.00;98637.20;105976;1288;141879;-81
2022/12/22 05:45:30;;;;;;;64.60;46.20;;;;;;;1.54;100.00;98631.64;106097;1289;59085;-80
2022/12/22 05:47:57;;;;;;;68.30;48.80;;;;;;;1.51;100.00;98630.71;106081;1289;59213;-80
2022/12/22 05:50:24;;;;;;;76.70;52.90;;;;;;;1.50;100.00;98626.73;106087;1288;58839;-81
2022/12/22 05:52:50;;;;;;;76.80;53.00;;;;;;;1.49;100.00;98628.31;106052;1282;59042;-80
2022/12/22 05:55:16;;;;;;;78.10;56.20;;;;;;;1.49;100.00;98627.80;106085;1291;59006;-79
2022/12/22 05:57:42;;;;;;;74.50;52.60;;;;;;;1.49;100.00;98627.30;106057;1288;58902;-79
2022/12/22 06:00:14;;;;;;;87.10;57.00;;;;;;;1.47;100.00;98623.17;106087;1289;58836;-80
2022/12/22 06:02:41;;;;;;;98.60;66.80;;;;;;;1.45;100.00;98621.66;106092;1297;58963;-78
2022/12/22 06:05:09;;;;;;;106.70;68.10;;;;;;;1.44;100.00;98620.80;105729;1293;67106;-79
2022/12/22 06:07:36;;;;;;;96.30;65.10;;;;;;;1.45;100.00;98615.02;106092;1288;60949;-79
2022/12/22 06:10:08;;;;;;;87.00;59.10;;;;;;;1.45;100.00;98609.06;105897;1290;58930;-80
2022/12/22 06:12:34;;;;;;;92.50;63.70;;;;;;;1.45;100.00;98612.21;106076;1288;58841;-80
2022/12/22 06:15:00;;;;;;;99.50;59.80;;;;;;;1.45;100.00;98607.65;106080;1288;58885;-80
2022/12/22 06:17:26;;;;;;;84.70;56.50;;;;;;;1.45;100.00;98603.98;106049;1290;59005;-79
2022/12/22 06:19:52;;;;;;;85.00;55.40;;;;;;;1.44;100.00;98602.43;106090;1287;59108;-79
2022/12/22 06:22:18;;;;;;;83.70;54.00;;;;;;;1.43;100.00;98596.73;106059;1289;58962;-80
2022/12/22 06:24:44;;;;;;;75.60;50.20;;;;;;;1.42;100.00;98596.04;106075;1295;59053;-81
2022/12/22 06:27:11;;;;;;;78.20;57.10;;;;;;;1.41;100.00;98590.46;106088;1288;58859;-80
2022/12/22 06:29:37;;;;;;;85.10;68.00;;;;;;;1.43;100.00;98592.67;106128;1281;59127;-81
2022/12/22 06:32:04;;;;;;;75.70;60.40;;;;;;;1.43;100.00;98595.30;106192;1278;59000;-80
2022/12/22 06:34:30;;;;;;;91.50;71.80;;;;;;;1.44;100.00;98595.79;106096;1288;59130;-81
2022/12/22 06:36:56;;;;;;;89.10;72.20;;;;;;;1.44;100.00;98591.58;106067;1289;58951;-79
2022/12/22 06:39:23;;;;;;;89.70;69.10;;;;;;;1.45;100.00;98593.67;106060;1288;59049;-78
2022/12/22 06:44:33;;;;;;;76.90;57.50;;;;;;;1.43;100.00;98584.11;106095;1288;59022;-80
2022/12/22 06:46:59;;;;;;;72.70;56.20;;;;;;;1.40;100.00;98582.98;106066;1282;58916;-79
2022/12/22 06:49:26;;;;;;;73.30;53.90;;;;;;;1.36;100.00;98583.67;106055;1278;58731;-80
2022/12/22 06:51:51;;;;;;;77.00;54.40;;;;;;;1.30;100.00;98592.95;106069;1288;58922;-81
2022/12/22 06:54:17;;;;;;;79.10;55.70;;;;;;;1.25;100.00;98597.89;105836;1291;59091;-81
2022/12/22 06:56:43;;;;;;;77.10;54.30;;;;;;;1.23;100.00;98593.20;105036;1291;1002142;-81
2022/12/22 06:59:09;;;;;;;76.30;52.50;;;;;;;1.23;100.00;98591.30;106042;1289;58799;-78
2022/12/22 07:01:35;;;;;;;83.30;55.70;;;;;;;1.22;100.00;98589.08;106112;1278;58986;-79
2022/12/22 07:04:02;;;;;;;79.10;57.60;;;;;;;1.20;100.00;98588.61;106043;1289;67283;-80
2022/12/22 07:06:28;;;;;;;88.20;59.10;;;;;;;1.16;100.00;98587.86;106063;1289;58940;-80
2022/12/22 07:08:54;;;;;;;96.80;68.60;;;;;;;1.14;100.00;98582.68;106048;1282;58958;-79
2022/12/22 07:11:20;;;;;;;92.00;63.50;;;;;;;1.13;100.00;98583.24;106096;1284;58856;-80
2022/12/22 07:13:46;;;;;;;99.00;68.40;;;;;;;1.11;100.00;98580.52;106044;1288;59057;-79
2022/12/22 07:16:12;;;;;;;110.20;72.70;;;;;;;1.10;100.00;98576.17;106059;1289;60353;-80
2022/12/22 07:18:40;;;;;;;107.40;72.20;;;;;;;1.11;100.00;98580.86;106081;1289;58998;-79
2022/12/22 07:21:09;;;;;;;104.90;72.80;;;;;;;1.14;100.00;98580.25;106057;1288;59409;-79
2022/12/22 07:23:36;;;;;;;96.10;68.10;;;;;;;1.16;100.00;98576.69;105781;1294;58955;-79
2022/12/22 07:26:04;;;;;;;108.30;72.70;;;;;;;1.18;100.00;98573.27;106062;1296;58873;-80
2022/12/22 07:28:35;;;;;;;99.10;70.80;;;;;;;1.23;100.00;98570.83;106076;1283;65928;-78
2022/12/22 07:31:02;;;;;;;100.90;70.80;;;;;;;1.29;100.00;98564.64;106078;1288;58973;-81
2022/12/22 07:33:28;;;;;;;98.40;69.60;;;;;;;1.38;100.00;98556.98;105890;1291;63850;-80
2022/12/22 07:36:12;;;;;;;99.30;71.80;;;;;;;1.45;100.00;98551.63;106057;1288;58987;-79
2022/12/22 07:38:41;;;;;;;102.50;69.90;;;;;;;1.55;100.00;98548.27;106037;1288;58895;-79
2022/12/22 07:42:43;;;;;;;101.10;73.30;;;;;;;1.66;100.00;98542.81;105679;1295;74508;-79
2022/12/22 07:43:56;;;;;;;102.50;72.80;;;;;;;1.75;100.00;98540.00;105928;1288;61181;-80
2022/12/22 07:46:25;;;;;;;100.60;72.70;;;;;;;1.84;100.00;98532.65;105853;1294;63763;-80
2022/12/22 07:51:39;;;;;;;143.40;103.50;;;;;;;1.98;100.00;98529.28;106072;1288;58956;-79
2022/12/22 07:54:07;;;;;;;135.90;100.90;;;;;;;2.05;100.00;98533.75;105693;1291;67052;-78
2022/12/22 07:56:34;;;;;;;125.80;91.40;;;;;;;2.11;100.00;98535.77;106059;1289;60794;-79
2022/12/22 07:59:00;;;;;;;118.20;87.10;;;;;;;2.17;100.00;98531.33;106028;1288;63985;-79
2022/12/22 08:01:27;;;;;;;115.20;85.70;;;;;;;2.22;100.00;98530.96;105880;1283;58870;-80
2022/12/22 08:03:53;;;;;;;156.60;116.70;;;;;;;2.25;100.00;98532.63;106053;1288;58916;-79
2022/12/22 08:06:19;;;;;;;131.70;93.80;;;;;;;2.28;100.00;98528.28;106061;1288;58895;-79
2022/12/22 08:08:45;;;;;;;118.50;88.80;;;;;;;2.29;100.00;98523.88;106072;1288;58976;-77
2022/12/22 08:11:12;;;;;;;123.20;89.20;;;;;;;2.27;100.00;98525.15;105892;1285;58936;-78
2022/12/22 08:13:38;;;;;;;117.80;84.50;;;;;;;2.25;100.00;98525.08;106079;1281;58832;-78
2022/12/22 08:16:06;;;;;;;136.00;96.70;;;;;;;2.23;100.00;98521.13;106046;1288;58799;-78
2022/12/22 08:18:34;;;;;;;140.00;97.20;;;;;;;2.21;100.00;98506.98;105746;1293;64471;-79
2022/12/22 08:21:00;;;;;;;132.60;95.00;;;;;;;2.22;100.00;98496.98;106072;1282;68332;-79
2022/12/22 08:23:28;;;;;;;143.70;104.50;;;;;;;2.22;100.00;98492.42;106059;1288;63887;-79
2022/12/22 08:26:00;;;;;;;138.30;99.00;;;;;;;2.22;100.00;98497.67;106076;1286;58939;-78
2022/12/22 08:28:27;;;;;;;140.80;99.70;;;;;;;2.22;100.00;98492.57;106051;1288;58749;-80
2022/12/22 08:30:53;;;;;;;130.90;94.30;;;;;;;2.25;100.00;98495.27;106056;1288;67082;-79
2022/12/22 08:33:19;;;;;;;148.30;101.40;;;;;;;2.23;100.00;98502.01;106073;1284;58874;-79
2022/12/22 08:35:45;;;;;;;143.60;103.10;;;;;;;2.20;100.00;98507.73;106079;1285;58929;-80
2022/12/22 08:38:13;;;;;;;151.20;107.90;;;;;;;2.21;100.00;98503.16;106037;1297;59174;-78
2022/12/22 08:40:43;;;;;;;146.70;105.30;;;;;;;2.26;100.00;98505.91;105905;1291;59042;-79
2022/12/22 08:43:10;;;;;;;149.20;106.70;;;;;;;2.34;100.00;98506.28;105055;1290;1002493;-78
2022/12/22 08:45:36;;;;;;;144.70;107.70;;;;;;;2.50;100.00;98504.93;105864;1292;61071;-79
2022/12/22 08:48:02;;;;;;;160.90;114.70;;;;;;;2.65;100.00;98511.14;106060;1280;59079;-80
2022/12/22 08:50:29;;;;;;;160.40;116.50;;;;;;;2.76;100.00;98516.46;106050;1289;58976;-79
2022/12/22 08:53:04;;;;;;;188.20;129.40;;;;;;;2.88;100.00;98523.83;106059;1281;59045;-80
2022/12/22 08:55:31;;;;;;;236.20;131.40;;;;;;;2.83;100.00;98525.08;105908;1291;67005;-79
2022/12/22 08:57:57;;;;;;;230.10;126.50;;;;;;;2.81;100.00;98521.83;105913;1290;59739;-80
2022/12/22 09:00:25;;;;;;;243.50;128.70;;;;;;;2.80;100.00;98529.79;106048;1288;59072;-79
2022/12/22 09:02:51;;;;;;;225.90;119.30;;;;;;;2.77;100.00;98525.89;106074;1297;58877;-79
2022/12/22 09:05:18;;;;;;;239.80;116.70;;;;;;;2.72;100.00;98525.36;106064;1281;59093;-79
2022/12/22 09:07:47;;;;;;;254.00;117.60;;;;;;;2.60;100.00;98520.63;106086;1295;67255;-78
2022/12/22 09:10:14;;;;;;;208.60;114.30;;;;;;;2.51;100.00;98516.12;106067;1288;69634;-79
2022/12/22 09:12:42;;;;;;;236.40;117.00;;;;;;;2.39;100.00;98520.95;105839;1292;65128;-78
2022/12/22 09:15:10;;;;;;;227.50;107.60;;;;;;;2.31;100.00;98519.74;106083;1281;58885;-79
2022/12/22 09:17:36;;;;;;;232.90;114.10;;;;;;;2.21;100.00;98509.79;106086;1288;58892;-78
2022/12/22 09:20:04;;;;;;;234.70;109.10;;;;;;;2.13;100.00;98500.83;106075;1288;66980;-78
2022/12/22 09:22:32;;;;;;;231.80;114.00;;;;;;;2.11;100.00;98493.38;105795;1289;61205;-78
2022/12/22 09:24:58;;;;;;;191.50;109.10;;;;;;;2.11;100.00;98484.27;106059;1289;63513;-79
2022/12/22 09:27:24;;;;;;;199.40;116.20;;;;;;;2.09;100.00;98479.09;106067;1288;59026;-79
2022/12/22 09:29:50;;;;;;;216.60;119.60;;;;;;;2.05;100.00;98478.90;106089;1282;59931;-79
2022/12/22 09:32:16;;;;;;;222.80;122.70;;;;;;;2.02;100.00;98480.27;106085;1288;59016;-78
2022/12/22 09:34:42;;;;;;;232.60;124.40;;;;;;;2.02;100.00;98473.77;106091;1289;58966;-79
2022/12/22 09:37:09;;;;;;;234.70;122.50;;;;;;;2.05;100.00;98467.52;105726;1288;59345;-80
2022/12/22 09:39:35;;;;;;;238.80;121.50;;;;;;;2.04;100.00;98464.61;106062;1281;58997;-79
2022/12/22 09:42:01;;;;;;;206.80;115.60;;;;;;;1.98;100.00;98461.14;106100;1288;58911;-79
2022/12/22 09:44:38;;;;;;;245.40;118.10;;;;;;;1.93;100.00;98457.86;106101;1282;58965;-78
2022/12/22 09:47:21;;;;;;;298.00;127.10;;;;;;;1.96;100.00;98450.38;105926;1288;60733;-77
2022/12/22 09:49:48;;;;;;;240.90;124.80;;;;;;;2.05;100.00;98442.46;106067;1289;65068;-78
2022/12/22 09:52:39;;;;;;;282.40;123.60;;;;;;;2.09;100.00;98431.79;106048;1288;58861;-78
2022/12/22 09:55:46;;;;;;;255.40;119.10;;;;;;;2.21;100.00;98429.89;106074;1291;58810;-79
2022/12/22 09:58:26;;;;;;;212.50;117.40;;;;;;;2.38;100.00;98424.96;105566;1297;67350;-78
2022/12/22 10:01:24;;;;;;;224.30;107.80;;;;;;;2.51;100.00;98412.48;105401;1300;59880;-78
2022/12/22 10:03:59;;;;;;;178.40;109.50;;;;;;;2.69;100.00;98410.09;105546;1292;62551;-79
2022/12/22 10:06:35;;;;;;;209.50;110.60;;;;;;;2.83;100.00;98416.15;105494;1297;59162;-79
2022/12/22 10:09:15;;;;;;;156.30;108.20;;;;;;;2.93;100.00;98416.20;105527;1297;59382;-79
2022/12/22 10:11:54;;;;;;;167.40;123.00;;;;;;;3.01;100.00;98408.86;105449;1296;67159;-79
2022/12/22 10:14:24;;;;;;;162.00;118.40;;;;;;;3.05;100.00;98399.00;105550;1297;61180;-79
2022/12/22 10:17:18;;;;;;;161.10;114.30;;;;;;;3.16;100.00;98402.34;105534;1297;64313;-79
2022/12/22 10:19:47;;;;;;;149.50;108.30;;;;;;;3.33;100.00;98400.52;105471;1296;59159;-79
2022/12/22 10:22:28;;;;;;;144.80;106.00;;;;;;;3.47;100.00;98397.05;105552;1295;58929;-81
2022/12/22 10:24:55;;;;;;;145.00;109.10;;;;;;;3.57;100.00;98394.11;105538;1297;65622;-80
2022/12/22 10:27:24;;;;;;;141.50;105.90;;;;;;;3.65;100.00;98400.20;105545;1288;59704;-79
2022/12/22 10:29:50;;;;;;;152.60;111.20;;;;;;;3.74;100.00;98399.77;105526;1281;63929;-79
2022/12/22 10:32:20;;;;;;;140.80;98.50;;;;;;;3.82;100.00;98405.69;105526;1297;59258;-79
2022/12/22 10:35:00;;;;;;;96.20;69.50;;;;;;;3.88;100.00;98393.64;105800;1289;58922;-79
2022/12/22 10:37:36;;;;;;;116.00;85.60;;;;;;;3.98;100.00;98387.51;106072;1281;66852;-79
2022/12/22 10:40:20;;;;;;;113.90;84.90;;;;;;;4.13;100.00;98376.73;106086;1281;58971;-78
2022/12/22 10:42:51;;;;;;;122.90;88.80;;;;;;;4.29;100.00;98376.84;106060;1288;65169;-78
2022/12/22 10:45:23;;;;;;;108.70;81.70;;;;;;;4.42;100.00;98376.33;106061;1289;59288;-79
2022/12/22 10:47:52;;;;;;;101.60;75.80;;;;;;;4.53;100.00;98370.45;105950;1291;58729;-79
2022/12/22 10:50:20;;;;;;;97.60;72.70;;;;;;;4.67;100.00;98364.80;106065;1287;75083;-79
2022/12/22 10:52:52;;;;;;;94.50;74.00;;;;;;;4.78;100.00;98363.15;105920;1289;60080;-78
2022/12/22 10:55:25;;;;;;;92.40;70.30;;;;;;;4.90;100.00;98353.73;105929;1283;64836;-80
2022/12/22 10:58:05;;;;;;;88.70;69.70;;;;;;;4.99;100.00;98348.64;106074;1289;58886;-81
2022/12/22 11:00:32;;;;;;;91.20;66.20;;;;;;;5.10;100.00;98338.55;105950;1288;59271;-81
2022/12/22 11:03:00;;;;;;;86.10;64.30;;;;;;;5.17;100.00;98332.70;106090;1289;65856;-82
2022/12/22 11:05:29;;;;;;;79.30;63.90;;;;;;;5.26;100.00;98328.65;106081;1288;67250;-79
2022/12/22 11:07:59;;;;;;;85.00;67.40;;;;;;;5.35;100.00;98329.77;105927;1291;65216;-81
2022/12/22 11:10:46;;;;;;;89.50;69.20;;;;;;;5.44;100.00;98331.16;105954;1287;59056;-82
2022/12/22 11:13:31;;;;;;;96.60;74.10;;;;;;;5.51;100.00;98324.60;106107;1288;58928;-81
2022/12/22 11:16:42;;;;;;;90.10;73.90;;;;;;;5.58;100.00;98319.63;106082;1282;67337;-81
2022/12/22 11:19:17;;;;;;;97.60;71.90;;;;;;;5.68;100.00;98320.09;105540;1293;61116;-82
2022/12/22 11:22:34;;;;;;;91.90;71.70;;;;;;;5.79;100.00;98315.10;105546;1290;63758;-82
2022/12/22 11:25:19;;;;;;;96.80;76.60;;;;;;;5.87;100.00;98317.25;105128;1299;58952;-80
2022/12/22 11:28:03;;;;;;;96.80;75.80;;;;;;;5.99;100.00;98319.90;105140;1301;59089;-80
2022/12/22 11:30:36;;;;;;;98.20;78.00;;;;;;;6.14;100.00;98311.81;105146;1303;66019;-80
2022/12/22 11:33:33;;;;;;;101.60;75.80;;;;;;;6.27;100.00;98307.68;105159;1303;61176;-81
2022/12/22 11:36:10;;;;;;;88.40;68.30;;;;;;;6.39;100.00;98304.66;105100;1302;64348;-81
2022/12/22 11:39:06;;;;;;;103.90;79.90;;;;;;;6.49;100.00;98300.71;105178;1302;58937;-81
2022/12/22 11:42:07;;;;;;;103.90;76.60;;;;;;;6.56;100.00;98295.10;105086;1302;58690;-81
2022/12/22 11:44:43;;;;;;;95.40;78.20;;;;;;;6.66;100.00;98288.33;105152;1301;67013;-81
2022/12/22 11:47:12;;;;;;;92.40;68.80;;;;;;;6.76;100.00;98279.60;104914;1302;61001;-82
2022/12/22 11:50:01;;;;;;;85.00;65.60;;;;;;;6.86;100.00;98278.09;105150;1296;65238;-80
2022/12/22 11:52:32;;;;;;;80.50;65.10;;;;;;;6.98;100.00;98281.71;104416;1302;58912;-82
2022/12/22 11:55:13;;;;;;;81.40;63.50;;;;;;;7.06;100.00;98280.20;104455;1306;59048;-80
2022/12/22 11:58:09;;;;;;;86.90;69.20;;;;;;;7.08;100.00;98278.10;104953;1309;67078;-81
2022/12/22 12:00:57;;;;;;;81.10;62.10;;;;;;;7.12;100.00;98278.57;104436;1301;59421;-82
2022/12/22 12:03:43;;;;;;;73.20;55.60;;;;;;;7.15;100.00;98268.66;104801;1305;64027;-82
2022/12/22 12:06:23;;;;;;;74.30;55.90;;;;;;;7.18;100.00;98261.88;104819;1306;58916;-81
2022/12/22 12:09:01;;;;;;;76.10;56.80;;;;;;;7.22;100.00;98259.52;104859;1306;59104;-82
2022/12/22 12:12:06;;;;;;;78.70;63.30;;;;;;;7.25;100.00;98256.34;104825;1298;67430;-82
2022/12/22 12:14:43;;;;;;;86.60;74.30;;;;;;;7.24;100.00;98250.89;104814;1302;61195;-82
2022/12/22 12:17:22;;;;;;;84.50;71.70;;;;;;;7.25;100.00;98250.98;104807;1296;65177;-83
2022/12/22 12:20:03;;;;;;;79.00;67.50;;;;;;;7.27;100.00;98247.20;104837;1296;59095;-82
2022/12/22 12:22:58;;;;;;;84.50;69.10;;;;;;;7.27;100.00;98242.95;104700;1298;58969;-83
2022/12/22 12:25:43;;;;;;;75.00;57.20;;;;;;;7.29;100.00;98232.23;104881;1305;67051;-82
2022/12/22 12:28:34;;;;;;;76.10;57.60;;;;;;;7.38;100.00;98225.45;104801;1306;60970;-84
2022/12/22 12:31:02;;;;;;;86.60;62.50;;;;;;;7.35;100.00;98220.54;105081;1296;65182;-83
2022/12/22 12:33:42;;;;;;;79.80;62.00;;;;;;;7.33;100.00;98218.34;105101;1309;58951;-82
2022/12/22 12:36:08;;;;;;;;;;;;;;;7.35;100.00;98221.59;105122;1303;58911;-82
2022/12/22 12:38:46;;;;;;;78.10;56.60;;;;;;;7.33;100.00;98225.41;105492;1282;58990;-84
2022/12/22 12:41:24;;;;;;;73.70;57.90;;;;;;;7.28;100.00;98229.42;105289;1300;59896;-81
2022/12/22 12:43:53;;;;;;;73.70;58.20;;;;;;;7.24;100.00;98231.67;105601;1290;62719;-83
2022/12/22 12:46:52;;;;;;;73.00;54.70;;;;;;;7.18;100.00;98234.52;105587;1290;58733;-83
2022/12/22 12:49:34;;;;;;;75.90;57.80;;;;;;;7.10;100.00;98233.13;105502;1300;58888;-82
2022/12/22 12:52:03;;;;;;;69.20;56.90;;;;;;;7.12;100.00;98226.10;105755;1290;64349;-83
2022/12/22 12:54:30;;;;;;;72.50;57.70;;;;;;;7.10;100.00;98225.33;105765;1290;60076;-82
2022/12/22 12:57:06;;;;;;;71.80;52.60;;;;;;;7.06;100.00;98224.91;105628;1295;64070;-79
2022/12/22 12:59:38;;;;;;;71.80;57.30;;;;;;;7.00;100.00;98216.28;105670;1290;59235;-88
2022/12/22 13:02:28;;;;;;;67.30;55.80;;;;;;;6.90;100.00;98221.66;105615;1293;58772;-85
2022/12/22 13:05:12;;;;;;;67.50;55.10;;;;;;;6.79;100.00;98224.48;105593;1296;66514;-83
2022/12/22 13:08:10;;;;;;;65.70;51.10;;;;;;;6.70;100.00;98221.89;105773;1288;59372;-83
2022/12/22 13:10:52;;;;;;;65.80;50.10;;;;;;;6.69;100.00;98224.96;106087;1281;65171;-85
2022/12/22 13:13:21;;;;;;;62.50;48.60;;;;;;;6.69;100.00;98221.98;106075;1288;58930;-82
2022/12/22 13:16:00;;;;;;;76.10;57.80;;;;;;;6.62;100.00;98220.12;105880;1283;59158;-82
2022/12/22 13:18:44;;;;;;;76.50;57.00;;;;;;;6.52;100.00;98215.62;106103;1288;67045;-83
2022/12/22 13:21:26;;;;;;;72.80;54.90;;;;;;;6.44;100.00;98217.55;106075;1284;60958;-83
2022/12/22 13:23:55;;;;;;;83.40;59.70;;;;;;;6.35;100.00;98217.22;106133;1277;64992;-84
2022/12/22 13:26:30;;;;;;;92.90;61.20;;;;;;;6.25;100.00;98217.64;106121;1288;58931;-84
2022/12/22 13:28:59;;;;;;;75.90;56.00;;;;;;;6.14;100.00;98222.73;105693;1295;59154;-84
2022/12/22 13:31:30;;;;;;;86.40;62.40;;;;;;;6.03;100.00;98223.56;105956;1284;65972;-81
2022/12/22 13:34:17;;;;;;;77.70;59.90;;;;;;;5.96;100.00;98218.91;106068;1288;69566;-83
2022/12/22 13:36:45;;;;;;;85.50;61.10;;;;;;;5.91;100.00;98212.46;106080;1291;65321;-84
2022/12/22 13:39:14;;;;;;;83.80;60.70;;;;;;;5.85;100.00;98211.23;105922;1291;58993;-82
2022/12/22 13:41:42;;;;;;;83.90;63.70;;;;;;;5.77;100.00;98215.27;105955;1282;59580;-83
2022/12/22 13:44:15;;;;;;;81.20;60.90;;;;;;;5.70;100.00;98213.71;106102;1281;65956;-84
2022/12/22 13:46:42;;;;;;;97.70;71.70;;;;;;;5.63;100.00;98213.25;105828;1288;60343;-85
2022/12/22 13:49:14;;;;;;;91.10;63.10;;;;;;;5.55;100.00;98213.92;106089;1288;64139;-83
2022/12/22 13:51:41;;;;;;;99.20;72.20;;;;;;;5.44;100.00;98211.90;106100;1289;59230;-83
2022/12/22 13:54:16;;;;;;;108.60;79.70;;;;;;;5.35;100.00;98210.86;105921;1292;59311;-84
2022/12/22 13:56:49;;;;;;;94.80;73.60;;;;;;;5.27;100.00;98210.61;106114;1288;65943;-84
2022/12/22 13:59:29;;;;;;;102.30;76.00;;;;;;;5.17;100.00;98206.26;106112;1281;60885;-84
2022/12/22 14:02:14;;;;;;;110.80;85.30;;;;;;;5.09;100.00;98198.11;105988;1285;64122;-85
2022/12/22 14:05:02;;;;;;;102.00;79.60;;;;;;;5.04;100.00;98200.48;105938;1290;58954;-84
2022/12/22 14:07:28;;;;;;;102.40;78.20;;;;;;;4.99;100.00;98199.74;106103;1288;59182;-80
2022/12/22 14:09:55;;;;;;;100.30;77.40;;;;;;;4.92;100.00;98198.87;106104;1288;58865;-81
2022/12/22 14:12:39;;;;;;;95.40;75.60;;;;;;;4.87;100.00;98197.96;106112;1287;60918;-85
2022/12/22 14:15:16;;;;;;;96.40;76.40;;;;;;;4.80;100.00;98198.17;105928;1286;65003;-84
2022/12/22 14:17:42;;;;;;;91.90;72.40;;;;;;;4.74;100.00;98199.19;106087;1289;59024;-83
2022/12/22 14:20:31;;;;;;;91.50;72.90;;;;;;;4.67;100.00;98200.10;106129;1285;59046;-82
2022/12/22 14:23:21;;;;;;;93.40;78.30;;;;;;;4.60;100.00;98197.88;106098;1289;67146;-85
2022/12/22 14:25:48;;;;;;;110.60;86.10;;;;;;;4.53;100.00;98188.56;106067;1288;60889;-83
2022/12/22 14:28:23;;;;;;;97.70;74.20;;;;;;;4.49;100.00;98190.20;105651;1290;72606;-83
2022/12/22 14:30:53;;;;;;;99.50;76.90;;;;;;;4.43;100.00;98187.70;105940;1284;58937;-83
2022/12/22 14:33:26;;;;;;;90.70;72.00;;;;;;;4.38;100.00;98191.68;105918;1291;58990;-84
2022/12/22 14:36:23;;;;;;;94.40;72.80;;;;;;;4.32;100.00;98190.77;106105;1281;67224;-84
2022/12/22 14:38:57;;;;;;;94.10;71.90;;;;;;;4.24;100.00;98194.39;105575;1297;59098;-85
2022/12/22 14:41:40;;;;;;;101.80;78.30;;;;;;;4.18;100.00;98197.52;105579;1293;64100;-83
2022/12/22 14:44:18;;;;;;;118.50;87.30;;;;;;;4.12;100.00;98195.21;105347;1300;59136;-83
2022/12/22 14:47:01;;;;;;;116.50;89.60;;;;;;;4.10;100.00;98194.96;105536;1298;58983;-83
2022/12/22 14:49:27;;;;;;;119.30;91.50;;;;;;;4.10;100.00;98194.42;105466;1297;67148;-82
2022/12/22 14:51:55;;;;;;;127.60;98.40;;;;;;;4.09;100.00;98190.42;105552;1297;59051;-83
2022/12/22 14:54:25;;;;;;;121.40;93.90;;;;;;;4.07;100.00;98186.49;105456;1290;63944;-83
2022/12/22 14:56:55;;;;;;;126.20;96.80;;;;;;;4.02;100.00;98186.56;105476;1296;58901;-83
2022/12/22 14:59:26;;;;;;;;;;;;;;;3.96;100.00;98187.27;105559;1288;58886;-84
2022/12/22 15:01:59;;;;;;;;;;;;;;;3.89;100.00;98185.02;105501;1297;67053;-84
2022/12/22 15:04:25;;;;;;;145.40;113.50;;;;;;;3.81;100.00;98181.75;105563;1288;61352;-84
2022/12/22 15:07:04;;;;;;;117.20;89.70;;;;;;;3.75;100.00;98186.64;105559;1294;59075;-84